Time;durP1;ratioP1;P1;durP2;ratioP2;P2;SDS_P1;SDS_P2;PMS_P1;PMS_P2;Temp;Humidity;BMP_temperature;BMP_pressure;BME280_temperature;BME280_humidity;BME280_pressure;Samples;Min_cycle;Max_cycle;Signal;HPM_P1;HPM_P2
2023/08/24 00:02:01;;;;;;;7.60;4.18;;;;;;;22.16;64.22;101940.28;5050896;28;20091;-49
2023/08/24 00:04:27;;;;;;;6.00;4.50;;;;;;;22.13;64.54;101927.97;5051244;28;20037;-44
2023/08/24 00:06:53;;;;;;;7.50;4.03;;;;;;;22.24;64.03;101923.31;5050866;28;20518;-43
2023/08/24 00:09:18;;;;;;;6.88;4.65;;;;;;;22.03;65.18;101917.50;5051399;28;20036;-44
2023/08/24 00:11:44;;;;;;;8.18;4.70;;;;;;;22.27;64.37;101925.03;5050821;28;20064;-46
2023/08/24 00:14:09;;;;;;;10.13;4.43;;;;;;;22.36;63.73;101932.84;5051068;28;20044;-50
2023/08/24 00:16:34;;;;;;;7.03;4.43;;;;;;;22.26;64.33;101924.16;5050630;28;20083;-44
2023/08/24 00:19:00;;;;;;;9.10;4.65;;;;;;;22.32;64.73;101923.19;5049586;28;20583;-48
2023/08/24 00:21:25;;;;;;;7.15;4.97;;;;;;;22.38;63.93;101923.06;5050734;28;20578;-44
2023/08/24 00:23:51;;;;;;;6.88;4.32;;;;;;;22.42;63.78;101924.75;5048902;28;20070;-46
2023/08/24 00:26:18;;;;;;;5.20;3.40;;;;;;;22.36;64.29;101918.69;5050481;28;20116;-50
2023/08/24 00:28:43;;;;;;;6.95;4.10;;;;;;;22.41;64.33;101919.47;5050261;28;20396;-43
2023/08/24 00:31:08;;;;;;;6.70;4.07;;;;;;;22.42;64.49;101913.25;5050243;28;20059;-49
2023/08/24 00:33:34;;;;;;;7.28;4.05;;;;;;;22.26;64.86;101910.03;5050604;28;20090;-45
2023/08/24 00:36:03;;;;;;;7.25;3.78;;;;;;;22.37;64.46;101910.69;5049615;28;20562;-46
2023/08/24 00:38:29;;;;;;;6.35;4.05;;;;;;;22.40;64.61;101909.75;5050744;28;20040;-48
2023/08/24 00:40:55;;;;;;;6.10;3.95;;;;;;;22.41;64.73;101909.72;5049770;28;20044;-44
2023/08/24 00:43:23;;;;;;;6.82;4.20;;;;;;;22.42;64.93;101908.81;5050511;28;20052;-43
2023/08/24 00:45:51;;;;;;;8.00;3.92;;;;;;;22.28;65.18;101913.50;5049473;28;20032;-43
2023/08/24 00:48:17;;;;;;;7.82;4.40;;;;;;;22.17;65.64;101912.84;5050679;28;20119;-42
2023/08/24 00:50:43;;;;;;;7.82;4.13;;;;;;;22.27;65.36;101920.59;5050051;28;20678;-48
2023/08/24 00:53:08;;;;;;;7.70;4.07;;;;;;;22.25;65.13;101918.88;5049098;28;20086;-46
2023/08/24 00:55:33;;;;;;;9.32;4.22;;;;;;;22.32;65.01;101920.53;5049712;28;20054;-44
2023/08/24 00:57:59;;;;;;;8.10;4.50;;;;;;;22.56;64.46;101924.50;5049825;28;20075;-46
2023/08/24 01:00:25;;;;;;;8.20;4.43;;;;;;;22.58;64.56;101928.88;5050077;28;20403;-44
2023/08/24 01:02:50;;;;;;;7.35;4.03;;;;;;;22.45;64.92;101924.69;5049927;28;20407;-50
2023/08/24 01:05:15;;;;;;;7.63;4.00;;;;;;;22.54;64.68;101928.97;5049834;28;20040;-44
2023/08/24 01:07:41;;;;;;;6.70;4.13;;;;;;;22.64;64.03;101927.88;5048732;28;20025;-46
2023/08/24 01:10:09;;;;;;;6.95;4.18;;;;;;;22.64;64.47;101922.56;5049522;28;20071;-48
2023/08/24 01:12:55;;;;;;;6.90;4.22;;;;;;;22.46;65.30;101904.31;5050067;28;20032;-48
2023/08/24 01:15:55;;;;;;;8.82;4.25;;;;;;;22.71;64.62;101894.94;5047907;28;20112;-44
2023/08/24 01:18:23;;;;;;;6.88;4.10;;;;;;;22.50;65.96;101884.75;5050186;28;20094;-44
2023/08/24 01:20:49;;;;;;;6.82;4.13;;;;;;;22.14;67.63;101878.38;5049253;28;20562;-43
2023/08/24 01:23:53;;;;;;;9.35;4.45;;;;;;;22.38;67.17;101900.94;5050025;28;20115;-43
2023/08/24 01:26:20;;;;;;;6.03;3.70;;;;;;;22.22;67.99;101897.69;5045934;28;20036;-45
2023/08/24 01:28:47;;;;;;;6.47;3.30;;;;;;;22.36;67.76;101897.44;5050245;28;20091;-44
2023/08/24 01:31:15;;;;;;;4.85;3.10;;;;;;;22.32;68.17;101899.28;5050656;28;20029;-44
2023/08/24 01:33:41;;;;;;;5.75;3.40;;;;;;;22.18;69.04;101899.53;5049733;28;20025;-42
2023/08/24 01:36:10;;;;;;;7.10;3.45;;;;;;;22.19;69.53;101889.78;5048959;28;20049;-43
2023/08/24 01:38:37;;;;;;;5.90;3.60;;;;;;;22.09;69.85;101889.06;5049887;28;20070;-46
2023/08/24 01:41:17;;;;;;;7.13;3.47;;;;;;;21.88;71.20;101881.44;5049100;28;20041;-46
2023/08/24 01:43:46;;;;;;;8.23;3.80;;;;;;;21.61;72.35;101873.94;5049069;28;20032;-50
2023/08/24 01:46:17;;;;;;;6.72;3.60;;;;;;;21.93;71.38;101871.63;5049249;28;20538;-44
2023/08/24 01:48:44;;;;;;;5.80;3.50;;;;;;;22.12;70.81;101877.50;5049428;28;20036;-46
2023/08/24 01:51:10;;;;;;;5.78;3.47;;;;;;;21.73;72.12;101871.97;5048992;28;20059;-44
2023/08/24 01:53:36;;;;;;;7.10;3.65;;;;;;;21.72;72.67;101869.31;5049836;28;20060;-49
2023/08/24 01:56:09;;;;;;;7.38;3.70;;;;;;;21.84;71.73;101861.16;5048872;28;20495;-43
2023/08/24 01:58:34;;;;;;;5.45;3.45;;;;;;;21.86;71.79;101870.84;5051244;28;20033;-45
2023/08/24 02:00:59;;;;;;;6.70;3.85;;;;;;;21.73;72.09;101864.00;5050765;28;20105;-46
2023/08/24 02:03:24;;;;;;;8.60;4.30;;;;;;;21.25;74.06;101844.44;5050509;28;20048;-45
2023/08/24 02:05:50;;;;;;;6.50;3.97;;;;;;;21.27;73.61;101833.81;5048593;28;20033;-45
2023/08/24 02:08:15;;;;;;;7.45;4.15;;;;;;;21.23;74.08;101832.97;5049322;28;20084;-45
2023/08/24 02:10:40;;;;;;;8.13;4.22;;;;;;;21.49;73.42;101832.56;5049753;28;20487;-46
2023/08/24 02:13:06;;;;;;;8.60;4.00;;;;;;;21.39;73.60;101815.06;5053319;28;20032;-43
2023/08/24 02:15:31;;;;;;;7.60;4.25;;;;;;;21.70;72.33;101810.97;5053096;28;20035;-46
2023/08/24 02:17:56;;;;;;;5.90;4.03;;;;;;;21.53;72.59;101820.13;5052810;28;20041;-43
2023/08/24 02:20:22;;;;;;;5.35;3.90;;;;;;;21.59;72.26;101812.06;5053154;28;20037;-47
2023/08/24 02:22:47;;;;;;;7.68;3.97;;;;;;;21.10;73.77;101799.56;5052681;28;20048;-44
2023/08/24 02:25:13;;;;;;;7.70;4.20;;;;;;;21.42;72.92;101785.81;5051257;28;20487;-44
2023/08/24 02:27:38;;;;;;;9.85;4.15;;;;;;;21.35;72.57;101795.63;5053413;28;20029;-45
2023/08/24 02:30:04;;;;;;;5.18;3.78;;;;;;;21.88;70.61;101801.81;5052747;28;20464;-44
2023/08/24 02:32:29;;;;;;;7.70;3.85;;;;;;;21.95;70.30;101810.53;5052057;28;20033;-49
2023/08/24 02:34:55;;;;;;;9.00;3.90;;;;;;;21.81;70.96;101818.75;5051090;28;20562;-45
2023/08/24 02:37:20;;;;;;;5.97;4.10;;;;;;;21.92;69.83;101818.53;5053348;28;20067;-45
2023/08/24 02:39:46;;;;;;;5.15;3.80;;;;;;;21.97;70.13;101825.56;5052218;28;20036;-45
2023/08/24 02:42:11;;;;;;;6.22;3.72;;;;;;;21.92;70.09;101816.75;5052932;28;20040;-43
2023/08/24 02:44:36;;;;;;;7.40;4.00;;;;;;;21.75;71.15;101809.13;5052475;28;20033;-46
2023/08/24 02:47:02;;;;;;;7.60;4.50;;;;;;;21.57;72.12;101804.13;5052474;28;20084;-46
2023/08/24 02:49:27;;;;;;;10.35;4.85;;;;;;;21.14;74.45;101805.69;5052598;28;20033;-46
2023/08/24 02:51:52;;;;;;;8.07;4.70;;;;;;;21.50;73.02;101798.94;5052210;28;20045;-46
2023/08/24 02:54:18;;;;;;;6.35;4.30;;;;;;;21.68;72.56;101798.63;5052325;28;20044;-45
2023/08/24 02:56:44;;;;;;;8.52;4.32;;;;;;;21.66;72.30;101796.00;5051460;28;20033;-45
2023/08/24 02:59:09;;;;;;;9.77;4.70;;;;;;;21.80;71.35;101798.41;5052423;28;20043;-47
2023/08/24 03:01:38;;;;;;;5.55;4.22;;;;;;;21.84;70.93;101789.47;5052779;28;20029;-45
2023/08/24 03:04:04;;;;;;;6.50;4.50;;;;;;;21.71;71.21;101777.34;5051907;28;20110;-44
2023/08/24 03:06:29;;;;;;;7.35;4.28;;;;;;;21.83;71.06;101791.25;5052316;28;20124;-46
2023/08/24 03:08:55;;;;;;;8.27;4.40;;;;;;;21.78;70.78;101779.84;5051952;28;20140;-42
2023/08/24 03:11:20;;;;;;;5.90;4.20;;;;;;;21.71;70.90;101772.91;5051782;28;20037;-46
2023/08/24 03:13:45;;;;;;;8.80;3.90;;;;;;;21.70;70.91;101767.63;5050425;28;20048;-45
2023/08/24 03:16:10;;;;;;;6.63;4.00;;;;;;;21.62;71.25;101766.91;5051674;28;20060;-46
2023/08/24 03:18:36;;;;;;;7.00;4.25;;;;;;;21.60;71.51;101755.41;5052192;28;20044;-45
2023/08/24 03:21:01;;;;;;;6.90;4.20;;;;;;;21.56;71.84;101756.38;5051630;28;20045;-43
2023/08/24 03:23:27;;;;;;;8.32;4.57;;;;;;;21.49;71.86;101758.28;5050885;28;20036;-46
2023/08/24 03:25:52;;;;;;;8.98;4.30;;;;;;;21.50;71.61;101753.84;5051331;28;20040;-43
2023/08/24 03:28:18;;;;;;;7.65;4.20;;;;;;;21.44;72.51;101753.06;5052639;28;20037;-43
2023/08/24 03:30:51;;;;;;;7.38;4.78;;;;;;;21.43;72.43;101761.03;5052615;28;20051;-43
2023/08/24 03:33:16;;;;;;;7.28;4.55;;;;;;;21.44;72.18;101757.50;5052491;28;20039;-43
2023/08/24 03:35:42;;;;;;;7.93;4.65;;;;;;;21.39;72.67;101760.22;5051884;28;20041;-46
2023/08/24 03:38:08;;;;;;;6.25;4.38;;;;;;;21.38;72.63;101761.13;5052611;28;20021;-45
2023/08/24 03:40:33;;;;;;;7.85;4.70;;;;;;;21.39;72.55;101764.66;5052713;28;20083;-42
2023/08/24 03:42:58;;;;;;;7.75;4.32;;;;;;;21.39;72.07;101762.00;5052381;28;20029;-43
2023/08/24 03:45:24;;;;;;;8.40;4.60;;;;;;;21.35;72.08;101760.28;5050924;28;20041;-48
2023/08/24 03:47:49;;;;;;;10.02;4.85;;;;;;;21.29;72.41;101760.38;5051548;28;20039;-43
2023/08/24 03:50:15;;;;;;;7.75;4.38;;;;;;;21.26;72.66;101760.44;5051692;28;20040;-43
2023/08/24 03:52:41;;;;;;;8.23;4.63;;;;;;;21.23;72.74;101758.72;5052520;28;20052;-43
2023/08/24 03:55:07;;;;;;;7.47;4.45;;;;;;;21.23;73.44;101757.84;5052022;28;20121;-45
2023/08/24 03:57:32;;;;;;;9.07;4.70;;;;;;;21.25;73.64;101750.75;5052818;28;20029;-48
2023/08/24 03:59:58;;;;;;;8.27;4.90;;;;;;;21.26;73.88;101760.44;5051978;28;20068;-42
2023/08/24 04:02:23;;;;;;;8.88;4.90;;;;;;;21.29;73.84;101761.25;5052263;28;20120;-43
2023/08/24 04:04:50;;;;;;;8.40;4.80;;;;;;;21.34;73.76;101764.75;5051450;28;20041;-44
2023/08/24 04:07:15;;;;;;;9.73;4.63;;;;;;;21.25;74.13;101759.56;5052593;28;20037;-45
2023/08/24 04:09:41;;;;;;;8.15;5.07;;;;;;;21.34;73.78;101763.84;5052306;28;20386;-48
2023/08/24 04:12:06;;;;;;;8.07;4.90;;;;;;;21.32;74.00;101766.53;5051726;28;20054;-43
2023/08/24 04:14:32;;;;;;;7.65;4.80;;;;;;;21.27;74.03;101763.09;5051740;28;20033;-44
2023/08/24 04:16:57;;;;;;;8.52;4.93;;;;;;;21.35;73.87;101760.28;5051362;28;20063;-47
2023/08/24 04:19:22;;;;;;;8.27;5.13;;;;;;;21.32;74.01;101753.28;5051157;28;20504;-44
2023/08/24 04:21:48;;;;;;;10.90;5.15;;;;;;;21.39;74.16;101754.91;5050297;28;20040;-44
2023/08/24 04:24:13;;;;;;;8.90;5.10;;;;;;;21.33;74.40;101762.09;5050983;28;20025;-42
2023/08/24 04:26:38;;;;;;;8.95;5.28;;;;;;;21.41;74.32;101744.25;5050828;28;20033;-44
2023/08/24 04:29:04;;;;;;;8.75;5.38;;;;;;;21.35;73.42;101750.53;5050173;28;20040;-44
2023/08/24 04:31:29;;;;;;;9.63;5.15;;;;;;;21.50;72.99;101743.22;5050697;28;20036;-45
2023/08/24 04:33:54;;;;;;;8.45;5.10;;;;;;;21.45;72.99;101741.56;5049472;28;20033;-45
2023/08/24 04:36:20;;;;;;;8.98;5.10;;;;;;;21.29;73.29;101737.38;5050406;28;20036;-48
2023/08/24 04:38:45;;;;;;;7.97;5.00;;;;;;;21.31;73.45;101743.56;5049809;28;20025;-47
2023/08/24 04:41:12;;;;;;;9.30;5.18;;;;;;;21.48;72.96;101743.25;5050369;28;20158;-46
2023/08/24 04:43:38;;;;;;;8.27;5.20;;;;;;;21.40;73.10;101739.88;5050825;28;20052;-42
2023/08/24 04:46:03;;;;;;;11.57;5.80;;;;;;;21.48;72.77;101745.91;5049654;28;20455;-48
2023/08/24 04:48:35;;;;;;;7.43;5.00;;;;;;;21.43;73.05;101723.91;5050823;28;20037;-46
2023/08/24 04:51:01;;;;;;;8.57;5.25;;;;;;;21.37;73.47;101724.88;5049995;28;20043;-44
2023/08/24 04:53:27;;;;;;;8.25;5.47;;;;;;;21.43;73.40;101724.78;5050350;28;20029;-48
2023/08/24 04:55:53;;;;;;;8.30;5.20;;;;;;;21.53;73.59;101722.81;5049381;28;20044;-42
2023/08/24 04:58:18;;;;;;;7.47;5.07;;;;;;;21.61;73.55;101718.25;5050587;28;20463;-43
2023/08/24 05:00:44;;;;;;;11.27;5.43;;;;;;;21.49;74.03;101709.63;5049892;28;20227;-43
2023/08/24 05:03:10;;;;;;;8.65;5.55;;;;;;;21.48;74.06;101708.75;5050329;28;20033;-47
2023/08/24 05:05:36;;;;;;;8.48;5.90;;;;;;;21.57;73.90;101713.03;5049781;28;20112;-46
2023/08/24 05:08:05;;;;;;;9.13;5.22;;;;;;;21.71;73.16;101711.00;5049735;28;20491;-47
2023/08/24 05:10:34;;;;;;;9.10;5.70;;;;;;;21.59;73.12;101703.28;5049949;28;20041;-44
2023/08/24 05:12:59;;;;;;;9.57;5.70;;;;;;;21.63;73.54;101695.22;5049506;28;20687;-45
2023/08/24 05:15:25;;;;;;;8.52;5.32;;;;;;;21.63;73.21;101691.69;5049416;28;20037;-44
2023/08/24 05:17:54;;;;;;;8.48;5.45;;;;;;;21.73;73.26;101677.31;5049577;28;20044;-44
2023/08/24 05:20:20;;;;;;;9.95;5.47;;;;;;;21.76;72.72;101682.59;5049829;28;20037;-44
2023/08/24 05:22:45;;;;;;;8.75;5.70;;;;;;;21.66;73.01;101695.16;5049476;28;20032;-45
2023/08/24 05:25:11;;;;;;;10.52;5.35;;;;;;;21.90;72.27;101683.16;5049143;28;20040;-46
2023/08/24 05:27:37;;;;;;;9.32;5.88;;;;;;;21.98;72.05;101688.34;5049713;28;20534;-45
2023/08/24 05:30:03;;;;;;;9.07;5.95;;;;;;;21.84;72.00;101693.91;5048911;28;20603;-45
2023/08/24 05:32:28;;;;;;;9.98;6.57;;;;;;;22.06;72.08;101694.41;5050029;28;20041;-44
2023/08/24 05:34:53;;;;;;;8.95;5.90;;;;;;;22.16;71.76;101695.94;5047165;28;20120;-43
2023/08/24 05:37:18;;;;;;;7.38;4.95;;;;;;;22.26;71.73;101684.22;5049846;28;20075;-43
2023/08/24 05:39:44;;;;;;;12.27;5.78;;;;;;;22.38;70.97;101678.63;5049241;28;20526;-42
2023/08/24 05:42:09;;;;;;;10.80;5.93;;;;;;;22.33;70.96;101674.31;5049933;28;20043;-46
2023/08/24 05:44:35;;;;;;;9.15;5.80;;;;;;;22.21;70.86;101679.00;5049382;28;20111;-42
2023/08/24 05:47:00;;;;;;;9.07;5.63;;;;;;;22.03;71.76;101675.84;5048630;28;20099;-42
2023/08/24 05:49:26;;;;;;;10.25;6.20;;;;;;;22.43;70.66;101663.47;5049663;28;20047;-46
2023/08/24 05:51:52;;;;;;;9.65;5.95;;;;;;;22.35;70.58;101665.41;5049599;28;20033;-43
2023/08/24 05:54:18;;;;;;;9.00;5.88;;;;;;;22.48;69.94;101668.66;5050885;28;20033;-48
2023/08/24 05:56:45;;;;;;;10.75;5.97;;;;;;;22.63;69.56;101657.66;5049417;28;20063;-47
2023/08/24 05:59:10;;;;;;;9.68;5.88;;;;;;;22.84;69.62;101661.63;5049807;28;20048;-46
2023/08/24 06:01:38;;;;;;;9.45;6.18;;;;;;;22.69;69.47;101657.50;5049182;28;20025;-46
2023/08/24 06:04:05;;;;;;;10.18;5.80;;;;;;;22.95;68.94;101641.81;5049498;28;20055;-44
2023/08/24 06:06:30;;;;;;;9.50;6.05;;;;;;;23.08;68.66;101638.84;5048896;28;20033;-49
2023/08/24 06:08:55;;;;;;;9.13;5.80;;;;;;;23.09;68.47;101638.81;5048775;28;20040;-44
2023/08/24 06:11:21;;;;;;;12.60;6.45;;;;;;;23.01;68.44;101646.97;5047824;28;20056;-45
2023/08/24 06:13:46;;;;;;;11.00;6.10;;;;;;;23.34;67.99;101637.25;5048750;28;20029;-45
2023/08/24 06:16:11;;;;;;;16.13;6.63;;;;;;;23.15;67.80;101627.13;5048867;28;20396;-44
2023/08/24 06:18:36;;;;;;;11.02;6.57;;;;;;;23.38;67.50;101614.94;5049560;28;20391;-48
2023/08/24 06:21:02;;;;;;;10.68;6.40;;;;;;;23.68;67.21;101615.03;5049323;28;20037;-44
2023/08/24 06:23:27;;;;;;;8.93;6.15;;;;;;;23.85;67.93;101612.72;5050488;28;20411;-44
2023/08/24 06:25:52;;;;;;;9.98;6.15;;;;;;;24.70;65.80;101611.88;5048534;28;20033;-44
2023/08/24 06:28:18;;;;;;;9.38;6.75;;;;;;;25.57;61.24;101602.56;5049932;28;20055;-47
2023/08/24 06:30:44;;;;;;;10.32;6.88;;;;;;;26.52;58.90;101594.41;5049054;28;20033;-46
2023/08/24 06:33:12;;;;;;;12.18;7.30;;;;;;;26.77;56.79;101589.78;5049265;28;20162;-46
2023/08/24 06:35:38;;;;;;;11.65;7.55;;;;;;;26.96;55.56;101593.41;5048506;28;20029;-49
2023/08/24 06:38:04;;;;;;;10.35;7.45;;;;;;;27.70;54.13;101594.56;5048751;28;20037;-47
2023/08/24 06:40:30;;;;;;;16.17;7.95;;;;;;;28.43;51.85;101601.78;5049236;28;20033;-45
2023/08/24 06:42:56;;;;;;;12.60;7.95;;;;;;;28.90;50.46;101602.13;4899411;28;20032;-50
2023/08/24 06:45:21;;;;;;;14.27;8.65;;;;;;;28.66;49.11;101603.34;4871814;28;20475;-50
2023/08/24 06:47:47;;;;;;;12.45;7.63;;;;;;;29.14;50.41;101616.09;4903178;28;20153;-44
2023/08/24 06:50:12;;;;;;;13.75;8.68;;;;;;;29.55;47.48;101621.13;5029163;28;20113;-47
2023/08/24 06:52:37;;;;;;;10.50;7.57;;;;;;;30.08;46.91;101613.69;5029133;28;20029;-46
2023/08/24 06:55:03;;;;;;;12.48;7.63;;;;;;;30.08;47.00;101604.75;5028206;28;20037;-44
2023/08/24 06:57:29;;;;;;;15.60;8.38;;;;;;;30.49;44.94;101597.91;5030385;28;20067;-50
2023/08/24 06:59:54;;;;;;;14.43;8.65;;;;;;;29.94;45.24;101601.97;5032238;28;20045;-47
2023/08/24 07:02:20;;;;;;;11.55;7.72;;;;;;;30.37;45.95;101597.72;5033266;28;20033;-43
2023/08/24 07:04:45;;;;;;;15.35;8.73;;;;;;;30.53;44.98;101594.06;5031804;28;20096;-45
2023/08/24 07:07:11;;;;;;;14.07;8.52;;;;;;;31.27;43.32;101591.41;5032942;28;20030;-44
2023/08/24 07:09:36;;;;;;;13.52;8.23;;;;;;;31.15;43.56;101592.19;5032901;28;20448;-44
2023/08/24 07:12:03;;;;;;;13.05;8.55;;;;;;;31.43;42.18;101578.72;5030916;28;20061;-45
2023/08/24 07:14:28;;;;;;;12.90;9.15;;;;;;;31.27;43.54;101590.56;5031845;28;20442;-44
2023/08/24 07:16:54;;;;;;;14.80;10.13;;;;;;;31.41;42.44;101585.19;5032235;28;20521;-45
2023/08/24 07:19:20;;;;;;;14.82;9.10;;;;;;;31.82;41.60;101587.97;5030761;28;20048;-47
2023/08/24 07:21:46;;;;;;;15.70;8.50;;;;;;;31.90;42.16;101582.94;5038801;28;20029;-47
2023/08/24 07:24:11;;;;;;;15.48;9.82;;;;;;;31.82;39.89;101580.75;5051467;28;20120;-52
2023/08/24 07:26:36;;;;;;;13.20;8.88;;;;;;;31.90;42.26;101576.72;5050991;28;20033;-46
2023/08/24 07:29:02;;;;;;;16.60;8.18;;;;;;;32.90;39.98;101569.97;5051385;28;20430;-45
2023/08/24 07:31:27;;;;;;;14.07;9.77;;;;;;;32.63;39.66;101567.31;5051673;28;20083;-43
2023/08/24 07:33:52;;;;;;;15.43;9.35;;;;;;;31.93;41.08;101573.78;5050832;28;20033;-45
2023/08/24 07:36:18;;;;;;;15.63;10.30;;;;;;;30.77;42.98;101572.03;5050938;28;20399;-45
2023/08/24 07:38:46;;;;;;;20.40;9.82;;;;;;;30.17;45.06;101578.22;5050692;28;20114;-49
2023/08/24 07:41:11;;;;;;;17.80;10.13;;;;;;;29.38;47.28;101571.88;5040702;28;20156;-47
2023/08/24 07:43:37;;;;;;;16.27;10.90;;;;;;;28.40;50.11;101568.91;5046963;28;20546;-48
2023/08/24 07:46:02;;;;;;;15.75;11.23;;;;;;;28.13;51.04;101568.41;5051317;28;22625;-45
2023/08/24 07:48:28;;;;;;;18.63;11.05;;;;;;;28.31;51.30;101566.66;5051068;28;20029;-43
2023/08/24 07:50:53;;;;;;;16.73;10.20;;;;;;;28.45;51.42;101570.41;5050209;28;20052;-44
2023/08/24 07:53:19;;;;;;;22.20;11.68;;;;;;;28.47;51.21;101560.47;5051573;28;20041;-44
2023/08/24 07:55:45;;;;;;;17.92;11.55;;;;;;;27.81;51.21;101561.94;5050126;28;20503;-44
2023/08/24 07:58:11;;;;;;;16.88;11.68;;;;;;;27.63;52.02;101558.28;5051081;28;20037;-42
2023/08/24 08:00:36;;;;;;;18.70;12.25;;;;;;;27.35;52.49;101555.13;5051328;28;20037;-45
2023/08/24 08:03:01;;;;;;;15.15;10.85;;;;;;;27.67;51.93;101548.31;5050535;28;20049;-48
2023/08/24 08:05:27;;;;;;;19.23;11.95;;;;;;;27.73;52.54;101553.38;5050038;28;20029;-47
2023/08/24 08:07:52;;;;;;;19.30;10.27;;;;;;;28.04;52.44;101552.78;5050183;28;20128;-45
2023/08/24 08:10:20;;;;;;;17.77;10.98;;;;;;;27.81;53.33;101546.69;5050040;28;20041;-46
2023/08/24 08:12:45;;;;;;;16.25;10.95;;;;;;;27.80;53.04;101539.63;5049931;28;20067;-44
2023/08/24 08:15:11;;;;;;;14.75;10.20;;;;;;;27.90;53.69;101540.03;5050624;28;20036;-47
2023/08/24 08:17:36;;;;;;;15.45;10.73;;;;;;;27.88;53.33;101527.66;5051371;28;20033;-46
2023/08/24 08:20:02;;;;;;;19.60;11.48;;;;;;;27.80;53.45;101530.72;5049892;28;20045;-45
2023/08/24 08:22:28;;;;;;;18.25;12.23;;;;;;;27.34;54.17;101521.25;5038341;28;20061;-46
2023/08/24 08:24:54;;;;;;;18.55;11.45;;;;;;;27.50;54.58;101519.63;5047661;28;20569;-48
2023/08/24 08:27:20;;;;;;;17.02;11.45;;;;;;;27.83;53.87;101520.72;5050730;28;20649;-46
2023/08/24 08:29:45;;;;;;;16.58;10.30;;;;;;;28.00;54.21;101519.00;5049794;28;20040;-45
2023/08/24 08:32:12;;;;;;;17.50;11.63;;;;;;;27.91;54.09;101500.72;5050739;28;20108;-47
2023/08/24 08:34:37;;;;;;;16.90;11.05;;;;;;;27.82;54.23;101499.34;5049604;28;20033;-50
2023/08/24 08:37:03;;;;;;;20.23;11.68;;;;;;;27.94;54.03;101498.75;5049991;28;20043;-46
2023/08/24 08:39:28;;;;;;;18.45;11.85;;;;;;;28.09;53.90;101492.63;5050526;28;20040;-46
2023/08/24 08:41:54;;;;;;;20.08;12.27;;;;;;;27.62;54.21;101488.72;5049823;28;20060;-46
2023/08/24 08:44:21;;;;;;;17.27;10.85;;;;;;;27.96;53.53;101498.66;5050453;28;20055;-47
2023/08/24 08:46:49;;;;;;;18.65;12.43;;;;;;;27.70;54.56;101498.13;5047128;28;20025;-46
2023/08/24 08:49:16;;;;;;;19.10;11.38;;;;;;;27.97;54.51;101493.25;5042168;28;20399;-46
2023/08/24 08:51:41;;;;;;;17.10;11.63;;;;;;;27.90;55.06;101489.13;5050463;28;20029;-47
2023/08/24 08:54:07;;;;;;;19.73;12.30;;;;;;;27.99;54.72;101485.13;5049927;28;20174;-44
2023/08/24 08:56:33;;;;;;;18.83;12.02;;;;;;;27.77;55.13;101488.84;5050077;28;20040;-49
2023/08/24 08:59:07;;;;;;;21.27;12.13;;;;;;;27.73;55.33;101481.91;5050036;28;20120;-46
2023/08/24 09:01:32;;;;;;;16.40;11.63;;;;;;;27.88;55.10;101474.91;5050620;28;20029;-45
2023/08/24 09:03:58;;;;;;;16.90;11.98;;;;;;;28.28;53.87;101470.28;5049668;28;20087;-44
2023/08/24 09:06:23;;;;;;;18.92;12.68;;;;;;;28.15;54.11;101473.59;5049752;28;20028;-44
2023/08/24 09:08:50;;;;;;;24.75;13.13;;;;;;;28.10;53.62;101475.63;5049728;28;20039;-47
2023/08/24 09:11:17;;;;;;;20.98;12.80;;;;;;;28.24;54.31;101480.28;5050521;28;20315;-43
2023/08/24 09:13:42;;;;;;;20.20;11.88;;;;;;;28.45;53.97;101497.13;5051997;28;20052;-43
2023/08/24 09:16:08;;;;;;;17.33;12.27;;;;;;;28.35;53.45;101495.88;5050197;28;20499;-44
2023/08/24 09:18:38;;;;;;;19.50;13.05;;;;;;;28.28;53.22;101495.31;5051018;28;20048;-45
2023/08/24 09:21:11;;;;;;;20.20;12.85;;;;;;;28.39;53.05;101517.06;5050824;28;20057;-46
2023/08/24 09:23:38;;;;;;;16.50;11.65;;;;;;;28.53;54.02;101527.97;5052006;28;20036;-45
2023/08/24 09:26:04;;;;;;;17.67;11.77;;;;;;;28.48;54.38;101526.47;5051376;28;20037;-48
2023/08/24 09:28:30;;;;;;;15.93;11.20;;;;;;;28.65;53.26;101523.81;5052347;28;20493;-46
2023/08/24 09:30:55;;;;;;;16.98;11.38;;;;;;;28.64;53.54;101516.69;5051357;28;20131;-45
2023/08/24 09:33:25;;;;;;;17.80;12.10;;;;;;;28.35;53.48;101503.91;5052940;28;20025;-44
2023/08/24 09:36:01;;;;;;;18.95;12.32;;;;;;;28.01;54.95;101493.94;5051617;28;20037;-45
2023/08/24 09:38:27;;;;;;;18.20;12.98;;;;;;;28.10;54.42;101498.88;5052545;28;20052;-48
2023/08/24 09:40:55;;;;;;;19.65;13.02;;;;;;;27.96;54.97;101499.53;5051595;28;20506;-45
2023/08/24 09:43:21;;;;;;;19.50;12.73;;;;;;;27.85;54.85;101497.41;5051807;28;20032;-50
2023/08/24 09:45:52;;;;;;;21.80;12.60;;;;;;;27.91;55.38;101493.53;5049800;28;20056;-46
2023/08/24 09:48:18;;;;;;;19.38;12.70;;;;;;;27.92;55.48;101484.56;5052266;28;20400;-45
2023/08/24 09:50:46;;;;;;;17.35;12.18;;;;;;;27.89;56.09;101487.38;5049385;28;20029;-48
2023/08/24 09:53:20;;;;;;;19.15;12.35;;;;;;;27.83;57.16;101493.03;5049821;28;20060;-43
2023/08/24 09:56:15;;;;;;;17.20;11.93;;;;;;;27.90;57.00;101493.63;5048568;28;20383;-45
2023/08/24 09:58:43;;;;;;;18.50;12.52;;;;;;;27.82;56.96;101500.22;5041667;28;20050;-51
2023/08/24 10:01:09;;;;;;;19.67;12.68;;;;;;;27.68;57.01;101504.50;5048826;28;20083;-44
2023/08/24 10:03:40;;;;;;;19.13;12.50;;;;;;;27.76;57.12;101505.00;5049538;28;20036;-45
2023/08/24 10:06:10;;;;;;;20.30;13.07;;;;;;;27.28;58.81;101505.47;5048539;28;20484;-49
2023/08/24 10:08:39;;;;;;;21.08;14.25;;;;;;;27.09;59.28;101507.22;5049483;28;20041;-49
2023/08/24 10:11:06;;;;;;;22.13;14.00;;;;;;;27.05;59.24;101509.19;5048454;28;20037;-48
2023/08/24 10:14:12;;;;;;;19.50;14.02;;;;;;;26.83;60.23;101503.91;5049170;28;20033;-46
2023/08/24 10:16:39;;;;;;;20.75;15.13;;;;;;;26.61;61.19;101497.72;5044356;28;20029;-46
2023/08/24 10:19:05;;;;;;;21.40;14.32;;;;;;;26.85;60.68;101485.97;5048582;28;20059;-44
2023/08/24 10:21:31;;;;;;;19.85;13.25;;;;;;;27.14;60.05;101476.63;5049104;28;20044;-45
2023/08/24 10:23:57;;;;;;;20.45;14.02;;;;;;;27.22;59.79;101468.25;5048559;28;20040;-44
2023/08/24 10:26:26;;;;;;;20.95;13.98;;;;;;;27.63;59.26;101459.16;5048689;28;20040;-44
2023/08/24 10:28:52;;;;;;;19.35;13.55;;;;;;;27.78;59.03;101463.78;5048509;28;20064;-49
2023/08/24 10:31:17;;;;;;;19.35;14.20;;;;;;;27.91;58.29;101466.75;5049026;28;20451;-46
2023/08/24 10:33:45;;;;;;;20.65;14.77;;;;;;;28.24;57.56;101474.94;5052750;28;20442;-47
2023/08/24 10:36:18;;;;;;;20.65;12.90;;;;;;;28.53;57.16;101471.66;5052121;28;20128;-48
2023/08/24 10:38:43;;;;;;;21.45;14.48;;;;;;;28.65;56.69;101478.19;5053155;28;20029;-48
2023/08/24 10:41:12;;;;;;;18.90;13.23;;;;;;;28.47;58.21;101490.75;5052606;28;20499;-49
2023/08/24 10:43:38;;;;;;;23.67;14.88;;;;;;;27.36;61.41;101497.94;5052947;28;20033;-46
2023/08/24 10:46:04;;;;;;;22.73;15.32;;;;;;;27.18;62.57;101497.00;5051935;28;20041;-45
2023/08/24 10:48:41;;;;;;;21.75;15.63;;;;;;;26.89;62.90;101500.13;5052794;28;20403;-48
2023/08/24 10:51:13;;;;;;;22.52;14.73;;;;;;;26.94;62.55;101496.28;5052222;28;20044;-46
2023/08/24 10:53:44;;;;;;;21.42;14.35;;;;;;;27.28;61.57;101492.06;5052668;28;20173;-48
2023/08/24 10:56:13;;;;;;;22.00;15.00;;;;;;;27.27;60.94;101480.50;5051145;28;20491;-46
2023/08/24 10:58:39;;;;;;;18.25;12.95;;;;;;;27.84;59.18;101473.34;5051825;28;20075;-47
2023/08/24 11:01:04;;;;;;;24.67;14.50;;;;;;;27.93;58.66;101469.34;5051937;28;20575;-46
2023/08/24 11:03:33;;;;;;;24.00;13.82;;;;;;;27.95;59.39;101473.69;5052590;28;20051;-47
2023/08/24 11:05:59;;;;;;;21.23;14.50;;;;;;;27.41;60.38;101469.13;5051161;28;20029;-45
2023/08/24 11:08:47;;;;;;;19.27;14.48;;;;;;;27.76;59.48;101471.03;5051046;28;20174;-49
2023/08/24 11:11:25;;;;;;;23.05;15.20;;;;;;;27.36;59.93;101453.31;5051579;28;20021;-44
2023/08/24 11:14:17;;;;;;;25.35;14.55;;;;;;;27.12;60.59;101440.19;5051903;28;20102;-46
2023/08/24 11:16:44;;;;;;;19.60;14.75;;;;;;;27.53;59.96;101427.53;5051833;28;20100;-47
2023/08/24 11:19:12;;;;;;;19.15;14.30;;;;;;;27.47;59.62;101428.69;5044042;28;20040;-43